createdAt,value
2019-05-05T00:00:28.530Z,1006.48
2019-05-05T00:01:28.522Z,1006.51
2019-05-05T00:02:28.504Z,1006.52
2019-05-05T00:03:28.492Z,1006.46
2019-05-05T00:04:28.495Z,1006.53
2019-05-05T00:05:28.466Z,1006.56
2019-05-05T00:06:28.651Z,1006.59
2019-05-05T00:07:28.448Z,1006.52
2019-05-05T00:08:28.439Z,1006.59
2019-05-05T00:09:28.439Z,1006.57
2019-05-05T00:10:28.427Z,1006.64
2019-05-05T00:11:28.425Z,1006.58
2019-05-05T00:12:28.420Z,1006.66
2019-05-05T00:13:28.383Z,1006.67
2019-05-05T00:14:28.370Z,1006.64
2019-05-05T00:15:28.384Z,1006.64
2019-05-05T00:16:28.359Z,1006.63
2019-05-05T00:17:28.333Z,1006.65
2019-05-05T00:18:28.336Z,1006.71
2019-05-05T00:19:32.475Z,1006.79
2019-05-05T00:20:29.324Z,1006.74
2019-05-05T00:21:28.311Z,1006.76
2019-05-05T00:22:28.278Z,1006.79
2019-05-05T00:23:28.276Z,1006.80
2019-05-05T00:24:28.259Z,1006.78
2019-05-05T00:25:28.244Z,1006.79
2019-05-05T00:26:28.305Z,1006.73
2019-05-05T00:27:28.228Z,1006.79
2019-05-05T00:28:28.210Z,1006.81
2019-05-05T00:29:28.206Z,1006.82
2019-05-05T00:30:28.214Z,1006.79
2019-05-05T00:31:28.183Z,1006.83
2019-05-05T00:32:28.164Z,1006.81
2019-05-05T00:33:28.158Z,1006.83
2019-05-05T00:34:28.150Z,1006.78
2019-05-05T00:35:28.140Z,1006.81
2019-05-05T00:36:28.130Z,1006.87
2019-05-05T00:37:28.127Z,1006.83
2019-05-05T00:38:28.101Z,1006.90
2019-05-05T00:39:28.091Z,1006.81
2019-05-05T00:40:28.076Z,1006.81
2019-05-05T00:41:28.096Z,1006.87
2019-05-05T00:42:28.058Z,1006.87
2019-05-05T00:43:28.045Z,1006.85
2019-05-05T00:44:28.040Z,1006.85
2019-05-05T00:45:28.018Z,1006.76
2019-05-05T00:46:28.012Z,1006.81
2019-05-05T00:47:28.032Z,1006.83
2019-05-05T00:48:27.985Z,1006.82
2019-05-05T00:49:27.982Z,1006.88
2019-05-05T00:50:27.979Z,1006.85
2019-05-05T00:51:27.969Z,1006.87
2019-05-05T00:52:27.973Z,1006.87
2019-05-05T00:53:27.930Z,1006.86
2019-05-05T00:54:27.922Z,1006.82
2019-05-05T00:55:27.916Z,1006.85
2019-05-05T00:56:27.898Z,1006.85
2019-05-05T00:57:27.915Z,1006.87
2019-05-05T00:58:27.890Z,1006.86
2019-05-05T00:59:27.870Z,1006.90
2019-05-05T01:00:27.859Z,1006.86
2019-05-05T01:01:27.851Z,1006.95
2019-05-05T01:02:27.839Z,1006.91
2019-05-05T01:03:27.843Z,1006.93
2019-05-05T01:04:27.809Z,1006.96
2019-05-05T01:05:27.806Z,1006.87
2019-05-05T01:06:27.795Z,1006.95
2019-05-05T01:07:27.783Z,1006.93
2019-05-05T01:08:27.786Z,1006.97
2019-05-05T01:09:27.765Z,1006.96
2019-05-05T01:10:27.751Z,1006.96
2019-05-05T01:11:27.734Z,1006.98
2019-05-05T01:12:27.729Z,1006.98
2019-05-05T01:13:27.714Z,1006.98
2019-05-05T01:14:27.715Z,1007.01
2019-05-05T01:15:27.691Z,1007.08
2019-05-05T01:16:27.683Z,1007.10
2019-05-05T01:17:27.673Z,1007.10
2019-05-05T01:18:27.665Z,1007.14
2019-05-05T01:19:27.655Z,1007.15
2019-05-05T01:20:27.649Z,1007.22
2019-05-05T01:21:27.623Z,1007.20
2019-05-05T01:22:27.618Z,1007.22
2019-05-05T01:23:27.604Z,1007.30
2019-05-05T01:24:27.611Z,1007.30
2019-05-05T01:25:27.587Z,1007.32
2019-05-05T01:26:27.570Z,1007.42
2019-05-05T01:27:27.590Z,1007.37
2019-05-05T01:28:27.551Z,1007.40
2019-05-05T01:29:27.539Z,1007.44
2019-05-05T01:30:27.526Z,1007.41
2019-05-05T01:31:27.518Z,1007.42
2019-05-05T01:32:27.509Z,1007.49
2019-05-05T01:33:27.514Z,1007.49
2019-05-05T01:34:27.496Z,1007.54
2019-05-05T01:35:27.486Z,1007.56
2019-05-05T01:36:27.469Z,1007.58
2019-05-05T01:37:27.451Z,1007.52
2019-05-05T01:38:27.442Z,1007.61
2019-05-05T01:39:27.444Z,1007.62
2019-05-05T01:40:27.428Z,1007.69
2019-05-05T01:41:27.419Z,1007.72
2019-05-05T01:42:27.396Z,1007.70
2019-05-05T01:43:27.394Z,1007.73
2019-05-05T01:44:27.374Z,1007.75
2019-05-05T01:45:27.369Z,1007.79
2019-05-05T01:46:27.404Z,1007.78
2019-05-05T01:47:27.349Z,1007.85
2019-05-05T01:48:27.333Z,1007.80
2019-05-05T01:49:27.324Z,1007.86
2019-05-05T01:50:27.322Z,1007.86
2019-05-05T01:51:27.306Z,1007.91
2019-05-05T01:52:27.291Z,1007.86
2019-05-05T01:53:27.282Z,1007.87
2019-05-05T01:54:27.275Z,1007.85
2019-05-05T01:55:27.274Z,1007.84
2019-05-05T01:56:27.269Z,1007.86
2019-05-05T01:57:27.236Z,1007.87
2019-05-05T01:58:27.234Z,1007.85
2019-05-05T01:59:27.215Z,1007.83
2019-05-05T02:00:27.215Z,1007.86
2019-05-05T02:01:27.199Z,1007.89
2019-05-05T02:02:27.188Z,1007.90
2019-05-05T02:03:27.178Z,1007.95
2019-05-05T02:04:27.160Z,1007.95
2019-05-05T02:05:27.192Z,1007.90
2019-05-05T02:06:27.142Z,1007.90
2019-05-05T02:07:27.139Z,1007.99
2019-05-05T02:08:27.121Z,1007.98
2019-05-05T02:09:27.108Z,1008.04
2019-05-05T02:10:27.099Z,1008.00
2019-05-05T02:11:27.106Z,1007.95
2019-05-05T02:12:27.082Z,1007.98
2019-05-05T02:13:27.071Z,1008.03
2019-05-05T02:14:27.052Z,1008.07
2019-05-05T02:15:27.039Z,1008.00
2019-05-05T02:16:27.074Z,1008.04
2019-05-05T02:17:27.025Z,1008.10
2019-05-05T02:18:27.009Z,1008.14
2019-05-05T02:19:27.015Z,1008.15
2019-05-05T02:20:29.410Z,1008.10
2019-05-05T02:21:26.979Z,1008.13
2019-05-05T02:22:26.978Z,1008.15
2019-05-05T02:23:26.959Z,1008.11
2019-05-05T02:24:26.945Z,1008.11
2019-05-05T02:25:26.948Z,1008.16
2019-05-05T02:26:26.935Z,1008.18
2019-05-05T02:27:26.929Z,1008.10
2019-05-05T02:28:26.908Z,1008.12
2019-05-05T02:29:26.899Z,1008.14
2019-05-05T02:30:26.895Z,1008.19
2019-05-05T02:31:26.876Z,1008.09
2019-05-05T02:32:26.862Z,1008.10
2019-05-05T02:33:26.867Z,1008.12
2019-05-05T02:34:26.845Z,1008.17
2019-05-05T02:35:26.825Z,1008.10
2019-05-05T02:36:26.818Z,1008.17
2019-05-05T02:37:26.819Z,1008.12
2019-05-05T02:38:26.806Z,1008.16
2019-05-05T02:39:26.781Z,1008.22
2019-05-05T02:40:26.787Z,1008.24
2019-05-05T02:41:26.761Z,1008.25
2019-05-05T02:42:26.757Z,1008.23
2019-05-05T02:43:26.757Z,1008.27
2019-05-05T02:44:26.729Z,1008.26
2019-05-05T02:45:26.739Z,1008.29
2019-05-05T02:46:26.710Z,1008.28
2019-05-05T02:47:26.698Z,1008.30
2019-05-05T02:48:26.737Z,1008.37
2019-05-05T02:49:26.673Z,1008.37
2019-05-05T02:50:26.665Z,1008.35
2019-05-05T02:51:26.659Z,1008.35
2019-05-05T02:52:26.639Z,1008.43
2019-05-05T02:53:26.631Z,1008.40
2019-05-05T02:54:26.631Z,1008.43
2019-05-05T02:55:26.636Z,1008.47
2019-05-05T02:56:26.598Z,1008.48
2019-05-05T02:57:26.591Z,1008.45
2019-05-05T02:58:26.578Z,1008.47
2019-05-05T02:59:26.607Z,1008.47
2019-05-05T03:00:26.566Z,1008.50
2019-05-05T03:01:26.556Z,1008.50
2019-05-05T03:02:26.538Z,1008.49
2019-05-05T03:03:26.520Z,1008.51
2019-05-05T03:04:26.508Z,1008.49
2019-05-05T03:05:26.513Z,1008.50
2019-05-05T03:06:26.495Z,1008.47
2019-05-05T03:07:26.489Z,1008.50
2019-05-05T03:08:26.470Z,1008.53
2019-05-05T03:09:26.465Z,1008.57
2019-05-05T03:10:26.456Z,1008.55
2019-05-05T03:11:26.440Z,1008.57
2019-05-05T03:12:26.433Z,1008.50
2019-05-05T03:13:26.418Z,1008.58
2019-05-05T03:14:26.423Z,1008.63
2019-05-05T03:15:26.392Z,1008.65
2019-05-05T03:16:26.384Z,1008.68
2019-05-05T03:17:26.379Z,1008.66
2019-05-05T03:18:26.373Z,1008.59
2019-05-05T03:19:26.352Z,1008.71
2019-05-05T03:20:26.362Z,1008.68
2019-05-05T03:21:26.333Z,1008.72
2019-05-05T03:22:26.316Z,1008.73
2019-05-05T03:23:26.317Z,1008.79
2019-05-05T03:24:26.298Z,1008.78
2019-05-05T03:25:26.292Z,1008.79
2019-05-05T03:26:26.285Z,1008.80
2019-05-05T03:27:26.269Z,1008.81
2019-05-05T03:28:26.278Z,1008.88
2019-05-05T03:29:26.243Z,1008.84
2019-05-05T03:30:26.282Z,1008.85
2019-05-05T03:31:26.758Z,1008.88
2019-05-05T03:32:26.214Z,1008.85
2019-05-05T03:33:26.202Z,1008.83
2019-05-05T03:34:26.188Z,1008.88
2019-05-05T03:35:26.176Z,1008.91
2019-05-05T03:36:26.169Z,1008.87
2019-05-05T03:37:26.162Z,1008.87
2019-05-05T03:38:26.144Z,1008.84
2019-05-05T03:39:26.166Z,1008.91
2019-05-05T03:40:26.120Z,1008.95
2019-05-05T03:41:26.118Z,1008.93
2019-05-05T03:42:26.097Z,1008.99
2019-05-05T03:43:26.090Z,1008.96
2019-05-05T03:44:26.086Z,1009.02
2019-05-05T03:45:26.070Z,1009.02
2019-05-05T03:46:26.054Z,1009.10
2019-05-05T03:47:26.052Z,1009.13
2019-05-05T03:48:26.071Z,1009.08
2019-05-05T03:49:26.029Z,1009.11
2019-05-05T03:50:26.016Z,1009.14
2019-05-05T03:51:26.003Z,1009.15
2019-05-05T03:52:25.994Z,1009.14
2019-05-05T03:53:25.979Z,1009.12
2019-05-05T03:54:25.990Z,1009.17
2019-05-05T03:55:25.966Z,1009.14
2019-05-05T03:56:25.953Z,1009.18
2019-05-05T03:57:25.940Z,1009.21
2019-05-05T03:58:25.946Z,1009.20
2019-05-05T03:59:25.912Z,1009.27
2019-05-05T04:00:25.906Z,1009.24
2019-05-05T04:01:25.891Z,1009.20
2019-05-05T04:02:25.882Z,1009.20
2019-05-05T04:03:25.871Z,1009.18
2019-05-05T04:04:25.871Z,1009.21
2019-05-05T04:05:25.853Z,1009.21
2019-05-05T04:06:25.841Z,1009.26
2019-05-05T04:07:25.834Z,1009.26
2019-05-05T04:08:25.822Z,1009.26
2019-05-05T04:09:25.821Z,1009.29
2019-05-05T04:10:25.806Z,1009.27
2019-05-05T04:11:25.790Z,1009.26
2019-05-05T04:12:25.776Z,1009.26
2019-05-05T04:13:25.764Z,1009.32
2019-05-05T04:14:25.751Z,1009.30
2019-05-05T04:15:25.751Z,1009.33
2019-05-05T04:16:25.731Z,1009.38
2019-05-05T04:17:25.724Z,1009.36
2019-05-05T04:18:25.705Z,1009.41
2019-05-05T04:19:25.709Z,1009.41
2019-05-05T04:20:25.700Z,1009.38
2019-05-05T04:21:33.478Z,1009.37
2019-05-05T04:22:26.667Z,1009.37
2019-05-05T04:23:25.657Z,1009.44
2019-05-05T04:24:25.647Z,1009.39
2019-05-05T04:25:25.671Z,1009.35
2019-05-05T04:26:25.623Z,1009.38
2019-05-05T04:27:25.611Z,1009.42
2019-05-05T04:28:25.599Z,1009.45
2019-05-05T04:29:25.607Z,1009.47
2019-05-05T04:30:25.589Z,1009.50
2019-05-05T04:31:25.567Z,1009.50
2019-05-05T04:32:25.564Z,1009.48
2019-05-05T04:33:25.586Z,1009.52
2019-05-05T04:34:25.538Z,1009.53
2019-05-05T04:35:25.522Z,1009.51
2019-05-05T04:36:25.517Z,1009.59
2019-05-05T04:37:25.507Z,1009.59
2019-05-05T04:38:25.503Z,1009.58
2019-05-05T04:39:25.492Z,1009.59
2019-05-05T04:40:25.479Z,1009.58
2019-05-05T04:41:25.471Z,1009.57
2019-05-05T04:42:25.446Z,1009.55
2019-05-05T04:43:25.450Z,1009.55
2019-05-05T04:44:25.442Z,1009.60
2019-05-05T04:45:25.424Z,1009.53
2019-05-05T04:46:25.423Z,1009.52
2019-05-05T04:47:25.406Z,1009.54
2019-05-05T04:48:25.385Z,1009.57
2019-05-05T04:49:25.375Z,1009.50
2019-05-05T04:50:25.367Z,1009.55
2019-05-05T04:51:25.360Z,1009.54
2019-05-05T04:52:25.386Z,1009.49
2019-05-05T04:53:25.326Z,1009.53
2019-05-05T04:54:25.314Z,1009.50
2019-05-05T04:55:25.307Z,1009.52
2019-05-05T04:56:25.297Z,1009.55
2019-05-05T04:57:25.279Z,1009.52
2019-05-05T04:58:25.306Z,1009.60
2019-05-05T04:59:25.259Z,1009.57
2019-05-05T05:00:25.262Z,1009.52
2019-05-05T05:01:25.235Z,1009.59
2019-05-05T05:02:25.223Z,1009.61
2019-05-05T05:03:25.215Z,1009.62
2019-05-05T05:04:25.221Z,1009.61
2019-05-05T05:05:25.197Z,1009.60
2019-05-05T05:06:25.186Z,1009.65
2019-05-05T05:07:25.208Z,1009.63
2019-05-05T05:08:25.161Z,1009.59
2019-05-05T05:09:25.166Z,1009.55
2019-05-05T05:10:25.143Z,1009.59
2019-05-05T05:11:25.136Z,1009.56
2019-05-05T05:12:25.113Z,1009.58
2019-05-05T05:13:25.104Z,1009.57
2019-05-05T05:14:25.095Z,1009.58
2019-05-05T05:15:25.095Z,1009.58
2019-05-05T05:16:25.077Z,1009.59
2019-05-05T05:17:25.110Z,1009.56
2019-05-05T05:18:25.046Z,1009.60
2019-05-05T05:19:25.036Z,1009.64
2019-05-05T05:20:25.026Z,1009.61
2019-05-05T05:21:25.036Z,1009.59
2019-05-05T05:22:25.017Z,1009.56
2019-05-05T05:23:25.007Z,1009.55
2019-05-05T05:24:25.005Z,1009.58
2019-05-05T05:25:24.971Z,1009.62
2019-05-05T05:26:24.970Z,1009.66
2019-05-05T05:27:24.976Z,1009.60
2019-05-05T05:28:24.954Z,1009.65
2019-05-05T05:29:24.929Z,1009.65
2019-05-05T05:30:24.916Z,1009.63
2019-05-05T05:31:24.904Z,1009.66
2019-05-05T05:32:24.892Z,1009.67
2019-05-05T05:33:24.898Z,1009.66
2019-05-05T05:34:24.878Z,1009.65
2019-05-05T05:35:24.861Z,1009.68
2019-05-05T05:36:24.937Z,1009.67
2019-05-05T05:37:24.843Z,1009.62
2019-05-05T05:38:24.837Z,1009.68
2019-05-05T05:39:24.837Z,1009.75
2019-05-05T05:40:24.828Z,1009.66
2019-05-05T05:41:24.800Z,1009.63
2019-05-05T05:42:24.791Z,1009.73
2019-05-05T05:43:25.384Z,1009.74
2019-05-05T05:44:27.943Z,1009.73
2019-05-05T05:45:24.755Z,1009.71
2019-05-05T05:46:24.751Z,1009.78
2019-05-05T05:47:24.766Z,1009.73
2019-05-05T05:48:24.722Z,1009.79
2019-05-05T05:49:24.710Z,1009.77
2019-05-05T05:50:24.712Z,1009.76
2019-05-05T05:51:24.699Z,1009.77
2019-05-05T05:52:24.677Z,1009.79
2019-05-05T05:53:24.686Z,1009.80
2019-05-05T05:54:24.653Z,1009.81
2019-05-05T05:55:24.640Z,1009.83
2019-05-05T05:56:25.040Z,1009.80
2019-05-05T05:57:24.697Z,1009.84
2019-05-05T05:58:24.683Z,1009.89
2019-05-05T05:59:24.784Z,1009.86
2019-05-05T06:00:24.583Z,1009.83
2019-05-05T06:01:24.592Z,1009.88
2019-05-05T06:02:24.575Z,1009.90
2019-05-05T06:03:24.669Z,1009.86
2019-05-05T06:04:24.541Z,1009.91
2019-05-05T06:05:24.533Z,1009.93
2019-05-05T06:06:24.523Z,1009.88
2019-05-05T06:07:24.628Z,1009.88
2019-05-05T06:08:24.500Z,1009.96
2019-05-05T06:09:24.494Z,1009.98
2019-05-05T06:10:27.322Z,1009.98
2019-05-05T06:11:24.468Z,1009.97
2019-05-05T06:12:24.659Z,1009.91
2019-05-05T06:13:24.448Z,1009.97
2019-05-05T06:14:24.739Z,1009.98
2019-05-05T06:15:24.615Z,1009.95
2019-05-05T06:16:24.415Z,1010.01
2019-05-05T06:17:24.423Z,1009.96
2019-05-05T06:18:24.502Z,1009.97
2019-05-05T06:19:24.666Z,1009.98
2019-05-05T06:20:24.378Z,1010.00
2019-05-05T06:21:24.354Z,1009.99
2019-05-05T06:22:29.353Z,1010.01
2019-05-05T06:23:25.365Z,1010.02
2019-05-05T06:24:24.321Z,1010.06
2019-05-05T06:25:26.588Z,1010.04
2019-05-05T06:26:24.304Z,1010.07
2019-05-05T06:27:24.283Z,1010.03
2019-05-05T06:28:24.285Z,1010.04
2019-05-05T06:29:24.279Z,1010.05
2019-05-05T06:30:24.522Z,1010.04
2019-05-05T06:31:24.587Z,1010.12
2019-05-05T06:32:24.233Z,1010.07
2019-05-05T06:33:24.327Z,1010.10
2019-05-05T06:34:24.522Z,1010.10
2019-05-05T06:35:24.560Z,1010.12
2019-05-05T06:36:24.193Z,1010.10
2019-05-05T06:37:24.175Z,1010.04
2019-05-05T06:38:24.349Z,1010.14
2019-05-05T06:39:24.293Z,1010.18
2019-05-05T06:40:24.137Z,1010.21
2019-05-05T06:41:24.134Z,1010.18
2019-05-05T06:42:24.114Z,1010.25
2019-05-05T06:43:25.484Z,1010.25
2019-05-05T06:44:24.743Z,1010.26
2019-05-05T06:45:24.090Z,1010.27
2019-05-05T06:46:24.075Z,1010.31
2019-05-05T06:47:24.067Z,1010.26
2019-05-05T06:48:24.049Z,1010.25
2019-05-05T06:49:24.105Z,1010.35
2019-05-05T06:50:24.336Z,1010.31
2019-05-05T06:51:24.593Z,1010.36
2019-05-05T06:52:24.863Z,1010.34
2019-05-05T06:53:24.000Z,1010.33
2019-05-05T06:54:24.228Z,1010.35
2019-05-05T06:55:24.520Z,1010.35
2019-05-05T06:56:24.019Z,1010.35
2019-05-05T06:57:24.172Z,1010.33
2019-05-05T06:58:24.222Z,1010.33
2019-05-05T06:59:24.453Z,1010.31
2019-05-05T07:00:24.201Z,1010.30
2019-05-05T07:01:24.777Z,1010.38
2019-05-05T07:02:23.946Z,1010.38
2019-05-05T07:03:24.418Z,1010.32
2019-05-05T07:04:24.576Z,1010.41
2019-05-05T07:05:23.865Z,1010.39
2019-05-05T07:06:24.024Z,1010.41
2019-05-05T07:07:23.843Z,1010.39
2019-05-05T07:08:24.496Z,1010.38
2019-05-05T07:09:24.446Z,1010.37
2019-05-05T07:10:24.478Z,1010.42
2019-05-05T07:11:23.969Z,1010.40
2019-05-05T07:12:24.248Z,1010.33
2019-05-05T07:13:24.446Z,1010.38
2019-05-05T07:14:23.776Z,1010.35
2019-05-05T07:15:23.813Z,1010.35
2019-05-05T07:16:24.372Z,1010.31
2019-05-05T07:17:24.530Z,1010.31
2019-05-05T07:18:24.701Z,1010.30
2019-05-05T07:19:23.997Z,1010.27
2019-05-05T07:20:24.182Z,1010.26
2019-05-05T07:21:23.898Z,1010.33
2019-05-05T07:22:24.430Z,1010.35
2019-05-05T07:23:24.641Z,1010.33
2019-05-05T07:24:24.004Z,1010.26
2019-05-05T07:25:24.205Z,1010.27
2019-05-05T07:26:23.911Z,1010.31
2019-05-05T07:27:24.297Z,1010.20
2019-05-05T07:28:23.623Z,1010.21
2019-05-05T07:29:24.029Z,1010.25
2019-05-05T07:30:24.296Z,1010.23
2019-05-05T07:31:23.940Z,1010.24
2019-05-05T07:32:24.577Z,1010.22
2019-05-05T07:33:23.908Z,1010.28
2019-05-05T07:34:24.192Z,1010.32
2019-05-05T07:35:24.678Z,1010.32
2019-05-05T07:36:24.968Z,1010.30
2019-05-05T07:37:23.901Z,1010.30
2019-05-05T07:38:24.441Z,1010.31
2019-05-05T07:39:23.867Z,1010.37
2019-05-05T07:40:24.133Z,1010.30
2019-05-05T07:41:23.532Z,1010.28
2019-05-05T07:42:24.311Z,1010.25
2019-05-05T07:43:24.035Z,1010.30
2019-05-05T07:44:29.156Z,1010.22
2019-05-05T07:45:25.859Z,1010.28
2019-05-05T07:46:24.102Z,1010.26
2019-05-05T07:47:23.884Z,1010.27
2019-05-05T07:48:24.338Z,1010.28
2019-05-05T07:49:24.368Z,1010.33
2019-05-05T07:50:29.506Z,1010.29
2019-05-05T07:51:24.368Z,1010.33
2019-05-05T07:52:23.837Z,1010.37
2019-05-05T07:53:24.462Z,1010.35
2019-05-05T07:54:23.698Z,1010.32
2019-05-05T07:55:23.812Z,1010.34
2019-05-05T07:56:23.821Z,1010.37
2019-05-05T07:57:23.796Z,1010.37
2019-05-05T07:58:24.285Z,1010.41
2019-05-05T07:59:23.935Z,1010.40
2019-05-05T08:00:24.036Z,1010.41
2019-05-05T08:01:24.478Z,1010.45
2019-05-05T08:02:23.756Z,1010.37
2019-05-05T08:03:23.706Z,1010.43
2019-05-05T08:04:24.272Z,1010.46
2019-05-05T08:05:24.649Z,1010.43
2019-05-05T08:06:23.773Z,1010.41
2019-05-05T08:07:24.041Z,1010.42
2019-05-05T08:08:24.459Z,1010.39
2019-05-05T08:09:24.841Z,1010.39
2019-05-05T08:10:24.099Z,1010.44
2019-05-05T08:11:23.856Z,1010.35
2019-05-05T08:12:24.916Z,1010.32
2019-05-05T08:13:24.303Z,1010.42
2019-05-05T08:14:24.514Z,1010.40
2019-05-05T08:15:23.793Z,1010.41
2019-05-05T08:16:24.238Z,1010.32
2019-05-05T08:17:23.594Z,1010.49
2019-05-05T08:18:24.294Z,1010.50
2019-05-05T08:19:24.201Z,1010.46
2019-05-05T08:24:54.493Z,1010.64
2019-05-05T08:27:07.582Z,1010.61
2019-05-05T08:37:06.004Z,1010.63
2019-05-05T08:38:05.985Z,1010.51
2019-05-05T08:39:05.969Z,1010.51
2019-05-05T08:40:05.961Z,1010.63
2019-05-05T08:41:05.959Z,1010.51
2019-05-05T08:42:05.953Z,1010.57
2019-05-05T08:43:05.950Z,1010.62
2019-05-05T08:44:05.921Z,1010.70
2019-05-05T08:45:05.909Z,1010.57
2019-05-05T08:46:05.900Z,1010.61
2019-05-05T08:47:05.883Z,1010.64
2019-05-05T08:48:05.880Z,1010.64
2019-05-05T08:49:05.860Z,1010.66
2019-05-05T08:50:05.849Z,1010.67
2019-05-05T08:51:05.843Z,1010.70
2019-05-05T08:52:05.834Z,1010.71
2019-05-05T08:53:08.399Z,1010.75
2019-05-05T08:54:05.814Z,1010.72
2019-05-05T08:55:05.805Z,1010.70
2019-05-05T08:56:05.790Z,1010.58
2019-05-05T08:57:05.779Z,1010.65
2019-05-05T08:58:05.767Z,1010.76
2019-05-05T08:59:05.772Z,1010.75
2019-05-05T09:00:05.745Z,1010.68
2019-05-05T09:01:05.729Z,1010.51
2019-05-05T09:02:05.720Z,1010.55
2019-05-05T09:03:05.713Z,1010.67
2019-05-05T09:04:05.741Z,1010.71
2019-05-05T09:05:05.690Z,1010.72
2019-05-05T09:06:05.693Z,1010.72
2019-05-05T09:07:05.665Z,1010.76
2019-05-05T09:08:05.655Z,1010.55
2019-05-05T09:09:05.650Z,1010.71
2019-05-05T09:10:05.673Z,1010.55
2019-05-05T09:11:05.622Z,1010.78
2019-05-05T09:12:05.616Z,1010.82
2019-05-05T09:13:05.599Z,1010.75
2019-05-05T09:14:05.591Z,1010.71
2019-05-05T09:15:05.583Z,1010.70
2019-05-05T09:16:05.608Z,1010.49
2019-05-05T09:17:05.559Z,1010.52
2019-05-05T09:18:05.554Z,1010.47
2019-05-05T09:19:05.534Z,1010.54
2019-05-05T09:20:05.522Z,1010.52
2019-05-05T09:21:05.528Z,1010.51
2019-05-05T09:22:08.624Z,1010.57
2019-05-05T09:23:05.492Z,1010.59
2019-05-05T09:24:05.491Z,1010.55
2019-05-05T09:25:05.468Z,1010.56
2019-05-05T09:26:05.520Z,1010.82
2019-05-05T09:27:05.454Z,1010.81
2019-05-05T09:28:06.160Z,1010.82
2019-05-05T09:29:05.438Z,1010.78
2019-05-05T09:30:05.419Z,1010.84
2019-05-05T09:31:05.410Z,1010.86
2019-05-05T09:32:05.410Z,1010.63
2019-05-05T09:33:05.389Z,1010.60
2019-05-05T09:34:05.376Z,1010.66
2019-05-05T09:35:05.394Z,1010.67
2019-05-05T09:36:05.353Z,1010.87
2019-05-05T09:37:05.352Z,1010.79
2019-05-05T09:38:05.335Z,1010.87
2019-05-05T09:39:05.322Z,1010.77
2019-05-05T09:40:05.346Z,1010.80
2019-05-05T09:41:05.808Z,1010.89
2019-05-05T09:42:05.299Z,1010.82
2019-05-05T09:43:05.289Z,1010.69
2019-05-05T09:44:05.261Z,1010.65
2019-05-05T09:45:05.255Z,1010.64
2019-05-05T09:46:05.243Z,1010.58
2019-05-05T09:47:05.275Z,1010.65
2019-05-05T09:48:05.250Z,1010.63
2019-05-05T09:49:05.206Z,1010.61
2019-05-05T09:50:05.202Z,1010.57
2019-05-05T09:51:05.204Z,1010.63
2019-05-05T09:52:05.196Z,1010.52
2019-05-05T09:53:05.168Z,1010.62
2019-05-05T09:54:13.889Z,1010.61
2019-05-05T09:55:06.144Z,1010.57
2019-05-05T09:56:05.135Z,1010.61
2019-05-05T09:57:05.129Z,1010.75
2019-05-05T09:58:05.113Z,1010.76
2019-05-05T09:59:05.096Z,1010.82
2019-05-05T10:00:05.107Z,1010.78
2019-05-05T10:01:05.075Z,1010.76
2019-05-05T10:02:05.067Z,1010.71
2019-05-05T10:03:05.053Z,1010.77
2019-05-05T10:04:05.043Z,1010.72
2019-05-05T10:05:05.061Z,1010.71
2019-05-05T10:06:05.267Z,1010.77
2019-05-05T10:07:05.080Z,1010.63
2019-05-05T10:08:05.006Z,1010.76
2019-05-05T10:09:04.992Z,1010.66
2019-05-05T10:10:04.985Z,1010.70
2019-05-05T10:11:04.967Z,1010.72
2019-05-05T10:12:05.033Z,1010.67
2019-05-05T10:13:04.947Z,1010.63
2019-05-05T10:14:04.939Z,1010.60
2019-05-05T10:15:07.543Z,1010.61
2019-05-05T10:16:04.912Z,1010.65
2019-05-05T10:17:05.135Z,1010.68
2019-05-05T10:18:04.899Z,1010.54
2019-05-05T10:19:04.887Z,1010.56
2019-05-05T10:20:04.897Z,1010.53
2019-05-05T10:21:04.860Z,1010.62
2019-05-05T10:22:04.847Z,1010.72
2019-05-05T10:23:04.836Z,1010.73
2019-05-05T10:24:04.831Z,1010.70
2019-05-05T10:25:04.822Z,1010.70
2019-05-05T10:26:04.828Z,1010.69
2019-05-05T10:27:05.069Z,1010.74
2019-05-05T10:28:04.795Z,1010.79
2019-05-05T10:29:04.777Z,1010.79
2019-05-05T10:30:04.767Z,1010.74
2019-05-05T10:31:04.818Z,1010.74
2019-05-05T10:32:04.804Z,1010.77
2019-05-05T10:33:04.735Z,1010.77
2019-05-05T10:34:04.718Z,1010.73
2019-05-05T10:35:04.857Z,1010.78
2019-05-05T10:36:04.704Z,1010.68
2019-05-05T10:37:04.703Z,1010.81
2019-05-05T10:38:04.680Z,1010.70
2019-05-05T10:39:04.672Z,1010.74
2019-05-05T10:40:04.659Z,1010.79
2019-05-05T10:41:04.687Z,1010.72
2019-05-05T10:42:04.639Z,1010.74
2019-05-05T10:43:04.750Z,1010.79
2019-05-05T10:44:04.616Z,1010.77
2019-05-05T10:45:04.608Z,1010.79
2019-05-05T10:46:04.606Z,1010.74
2019-05-05T10:47:04.838Z,1010.65
2019-05-05T10:48:04.580Z,1010.72
2019-05-05T10:49:04.566Z,1010.58
2019-05-05T10:50:05.077Z,1010.53
2019-05-05T10:51:04.558Z,1010.62
2019-05-05T10:52:04.533Z,1010.67
2019-05-05T10:53:04.841Z,1010.69
2019-05-05T10:54:04.541Z,1010.73
2019-05-05T10:55:04.493Z,1010.67
2019-05-05T10:56:04.563Z,1010.63
2019-05-05T10:57:04.472Z,1010.80
2019-05-05T10:58:04.477Z,1010.66
2019-05-05T10:59:04.455Z,1010.65
2019-05-05T11:00:12.263Z,1010.62
2019-05-05T11:01:05.431Z,1010.60
2019-05-05T11:02:05.113Z,1010.66
2019-05-05T11:03:04.406Z,1010.63
2019-05-05T11:04:04.424Z,1010.75
2019-05-05T11:05:04.433Z,1010.69
2019-05-05T11:06:04.676Z,1010.72
2019-05-05T11:07:04.432Z,1010.79
2019-05-05T11:08:04.479Z,1010.77
2019-05-05T11:09:04.474Z,1010.72
2019-05-05T11:10:04.330Z,1010.75
2019-05-05T11:11:04.494Z,1010.68
2019-05-05T11:12:04.331Z,1010.52
2019-05-05T11:13:04.302Z,1010.46
2019-05-05T11:14:04.318Z,1010.42
2019-05-05T11:15:04.283Z,1010.47
2019-05-05T11:16:04.266Z,1010.50
2019-05-05T11:17:04.375Z,1010.58
2019-05-05T11:18:04.255Z,1010.60
2019-05-05T11:19:04.422Z,1010.61
2019-05-05T11:20:04.247Z,1010.79
2019-05-05T11:21:04.218Z,1010.76
2019-05-05T11:22:04.200Z,1010.74
2019-05-05T11:23:04.847Z,1010.80
2019-05-05T11:24:04.186Z,1010.77
2019-05-05T11:25:05.105Z,1010.71
2019-05-05T11:26:04.162Z,1010.72
2019-05-05T11:27:04.552Z,1010.75
2019-05-05T11:28:04.139Z,1010.71
2019-05-05T11:29:04.277Z,1010.71
2019-05-05T11:30:04.163Z,1010.42
2019-05-05T11:31:04.534Z,1010.74
2019-05-05T11:32:04.182Z,1010.41
2019-05-05T11:33:04.161Z,1010.43
2019-05-05T11:34:04.080Z,1010.51
2019-05-05T11:35:04.752Z,1010.49
2019-05-05T11:36:04.532Z,1010.51
2019-05-05T11:37:04.064Z,1010.47
2019-05-05T11:38:04.035Z,1010.50
2019-05-05T11:39:04.113Z,1010.48
2019-05-05T11:40:04.278Z,1010.56
2019-05-05T11:41:04.936Z,1010.59
2019-05-05T11:42:04.509Z,1010.52
2019-05-05T11:43:03.982Z,1010.48
2019-05-05T11:44:04.207Z,1010.55
2019-05-05T11:45:04.233Z,1010.59
2019-05-05T11:46:03.945Z,1010.63
2019-05-05T11:47:03.933Z,1010.59
2019-05-05T11:48:03.927Z,1010.62
2019-05-05T11:49:04.907Z,1010.66
2019-05-05T11:50:04.422Z,1010.71
2019-05-05T11:51:04.554Z,1010.96
2019-05-05T11:52:04.628Z,1010.74
2019-05-05T11:53:04.001Z,1010.89
2019-05-05T11:54:04.674Z,1010.75
2019-05-05T11:55:11.649Z,1010.65
2019-05-05T11:56:04.835Z,1010.73
2019-05-05T11:57:04.495Z,1010.73
2019-05-05T11:58:03.816Z,1010.74
2019-05-05T11:59:04.077Z,1010.68
2019-05-05T12:00:03.938Z,1010.64
2019-05-05T12:01:03.966Z,1010.69
2019-05-05T12:02:03.925Z,1010.65
2019-05-05T12:03:03.965Z,1010.68
2019-05-05T12:04:04.151Z,1010.68
2019-05-05T12:05:04.565Z,1010.74
2019-05-05T12:06:04.089Z,1010.68
2019-05-05T12:07:04.196Z,1010.69
2019-05-05T12:08:03.983Z,1010.76
2019-05-05T12:09:03.729Z,1010.71
2019-05-05T12:10:03.678Z,1010.72
2019-05-05T12:11:04.609Z,1010.76
2019-05-05T12:12:03.836Z,1010.75
2019-05-05T12:13:04.108Z,1010.72
2019-05-05T12:14:03.912Z,1010.77
2019-05-05T12:15:04.315Z,1010.78
2019-05-05T12:16:04.586Z,1010.73
2019-05-05T12:17:04.581Z,1010.75
2019-05-05T12:18:03.900Z,1010.75
2019-05-05T12:19:03.585Z,1010.78
2019-05-05T12:20:04.737Z,1010.87